الصفحة الرئيسية
METAR-TAF:

METAR-TAF

مطار :

Sainte Marie, مدغشقر

دائرة عرض: 17-05S, خط طول: 049-49E, ارتفاع: 2 متر

مراقبة الطقس الحالي

تاريخ ووقت الإصدار 5ساعات و 14 دقيقة قبل الساعة 15:00UTC
ريح 8 عقدة من الجنوب
درجة الحرارة 25°درجة مئوية
الرطوبة 79%
ضغط 1017 hPa
الرؤية 10 كم أو أكثر
غيوم متفرقة على ارتفاع 1700 قدم
ملبد بالغيوم على ارتفاع 4000 قدم
زخات في الجوار

METAR: FMMS 291500Z 18008KT 9999 VCSH SCT017 OVC040 25/21 Q1017

زمن: 23:14 (20:14 UTC)

توقعات

تاريخ ووقت الإصدار 3ساعات و 14 دقيقة قبل الساعة 17:00UTC
التوقعات صالحة من29 الساعة 18 UTC إلى 30 الساعة 18 UTC
ريح 14 عقدة من الجنوب/الجنوب الشرقي
الرؤية: 9000 متر
غيوم قليلة على ارتفاع 700 قدم
غيوم متفرقة على ارتفاع 1700 قدم, مزن ركامية عمودية.
غيوم مفككة على ارتفاع 3300 قدم
نظرية الاحتمالات 40% :
مؤقت
من 29 الساعة 18 UTC إلى 30 الساعة 18 UTC
الرؤية: 3000 متر
زخات من المطر

TAF: FMMS 291700Z 2918/3018 16014KT 9000 FEW007 SCT017TCU BKN033 PROB40 TEMPO 2918/3018 3000 SHRA

أرصاد الطقس والتوقعات من أكثر من 4000 مطار (تقارير الطقس للمطار METAR والتنبؤ بالطقس بالمطارTAF).

المحطات المتاحة هي النقط الصفراء والحمراء على الخريطة.

حرك المؤشر فوق النقطة لمعرفة اسم المحطة.

ثم انقر لمعرفة أرصاد وتوقعات الطقس.

لتغيير الخارطة: اضغط على الأزرار الخضراء مع رمز الصليب الأسود للتكبير. على الزر الأخضر مع شرطة للتصغير، أو على الأسهم الخضراء للخرائط المجاورة.


METAR-TAF: